Epic Balta — 9VED8 — position and weather

sailwx.info

Track history (hours):
 
Tides and Currents Weather Stations Pressure Air Temp Water Temp Dewpoint Dewpoint Depression Visibility Wind Speed Wind Dir Waves Ship Positions

Epic Balta

Last reported at 2015-Aug-29 17:34 UTC. Time now 2015-Sep-05 12:22 UTC.
Position N 29°30' W 094°52'.

Length 100 m; draft 6.4 m.

Type: Ship. MMSI: 565525000.

Date/timePositionNaut miles runAvg speedWind from/ knotsBaromVisibWave heightAir tempDewpointWater temp
2015-Aug-29 17:34N 29°30' W 094°52'1212.2
2015-Aug-29 16:33N 29°40' W 094°59'8 7.3
2015-Aug-29 15:29N 29°45' W 095°06'1 0.4
2015-Aug-29 12:33N 29°44' W 095°08'0 0.0
2015-Aug-29 11:21N 29°44' W 095°08'0 0.0
2015-Aug-28 05:13N 29°44' W 095°07'2 3.6
2015-Aug-28 04:34N 29°46' W 095°05'8 8.2
2015-Aug-28 03:33N 29°40' W 094°59'1312.9
2015-Aug-28 02:33N 29°29' W 094°51'  
Track history (hours):
 
Tides and Currents Weather Stations Pressure Air Temp Water Temp Dewpoint Dewpoint Depression Visibility Wind Speed Wind Dir Waves Ship Positions

Epic Balta

Last reported at 2015-Aug-29 17:34 UTC. Time now 2015-Sep-05 12:22 UTC.
Position N 29°30' W 094°52'.

Length 100 m; draft 6.4 m.

Type: Ship. MMSI: 565525000.

Date/timePositionNaut miles runAvg speedWind from/ knotsBaromVisibWave heightAir tempDewpointWater temp
2015-Aug-29 17:34N 29°30' W 094°52'1212.2
2015-Aug-29 16:33N 29°40' W 094°59'8 7.3
2015-Aug-29 15:29N 29°45' W 095°06'1 0.4
2015-Aug-29 12:33N 29°44' W 095°08'0 0.0
2015-Aug-29 11:21N 29°44' W 095°08'0 0.0
2015-Aug-28 05:13N 29°44' W 095°07'2 3.6
2015-Aug-28 04:34N 29°46' W 095°05'8 8.2
2015-Aug-28 03:33N 29°40' W 094°59'1312.9
2015-Aug-28 02:33N 29°29' W 094°51'  

Dump ship's entire track history